This is the latest recevied weather packets stored in our database for station/object KB2KMM. If no packets are shown the sender has not sent any weather packets the latest 10 day(s).
| Time | Temp. | Humidity | Pressure | Rain* | Wind** | Luminosity | Snow |
|---|---|---|---|---|---|---|---|
| 1777923009 | 18.33° C | 38% | 1011.2 hPa | 0 mm | - | - | - |
| 1777922705 | 18.33° C | 38% | 1011.3 hPa | 0 mm | - | - | - |
| 1777922409 | 18.33° C | 37% | 1011.2 hPa | 0 mm | - | - | - |
| 1777922105 | 18.33° C | 37% | 1011.2 hPa | 0 mm | - | - | - |
| 1777921808 | 18.33° C | 36% | 1011.3 hPa | 0 mm | - | - | - |
| 1777921505 | 18.33° C | 38% | 1011.2 hPa | 0 mm | - | - | - |
| 1777921205 | 18.33° C | 38% | 1011.3 hPa | 0 mm | - | - | - |
| 1777920905 | 18.33° C | 36% | 1011.3 hPa | 0 mm | - | - | - |
| 1777920610 | 18.33° C | 34% | 1011.4 hPa | 0 mm | - | - | - |
| 1777920305 | 18.33° C | 34% | 1011.4 hPa | 0 mm | - | - | - |
| 1777920009 | 18.89° C | 33% | 1011.5 hPa | 0 mm | - | - | - |
| 1777919705 | 18.89° C | 33% | 1011.6 hPa | 0 mm | - | - | - |
| 1777919409 | 18.89° C | 31% | 1011.5 hPa | 0 mm | - | - | - |
| 1777919105 | 19.44° C | 31% | 1011.5 hPa | 0 mm | - | - | - |
| 1777918809 | 18.89° C | 34% | 1011.5 hPa | 0 mm | - | - | - |
| 1777918506 | 18.89° C | 33% | 1011.6 hPa | 0 mm | - | - | - |
| 1777918208 | 18.89° C | 34% | 1011.8 hPa | 0 mm | - | - | - |
| 1777917905 | 18.89° C | 34% | 1011.8 hPa | 0 mm | - | - | - |
| 1777917604 | 18.33° C | 36% | 1011.8 hPa | 0 mm | - | - | - |
| 1777917305 | 18.33° C | 37% | 1011.8 hPa | 0 mm | - | - | - |
| 1777917009 | 18.33° C | 37% | 1011.8 hPa | 0 mm | - | - | - |
| 1777916705 | 17.78° C | 40% | 1011.9 hPa | 0 mm | - | - | - |
| 1777916409 | 17.78° C | 42% | 1012 hPa | 0 mm | - | - | - |
| 1777916105 | 17.78° C | 41% | 1012 hPa | 0 mm | - | - | - |
| 1777915809 | 17.78° C | 41% | 1012 hPa | 0 mm | - | - | - |
* Rain latest hour (hover to see other rain measurements)
** Current wind speed in m/s (hover to see current wind gust speed)